createdAt,value
2017-11-04T00:00:29.767Z,5.50
2017-11-04T00:02:56.285Z,5.40
2017-11-04T00:05:22.769Z,5.40
2017-11-04T00:07:49.984Z,5.40
2017-11-04T00:10:16.462Z,5.20
2017-11-04T00:12:42.998Z,5.10
2017-11-04T00:15:09.435Z,5.20
2017-11-04T00:17:35.924Z,5.20
2017-11-04T00:20:02.420Z,5.20
2017-11-04T00:22:28.852Z,5.30
2017-11-04T00:24:55.350Z,4.90
2017-11-04T00:27:21.794Z,4.90
2017-11-04T00:29:48.255Z,5.00
2017-11-04T00:32:14.710Z,5.00
2017-11-04T00:34:41.159Z,5.20
2017-11-04T00:37:07.657Z,5.30
2017-11-04T00:39:34.090Z,5.30
2017-11-04T00:42:00.621Z,5.30
2017-11-04T00:44:27.223Z,5.30
2017-11-04T00:46:53.682Z,5.30
2017-11-04T00:49:20.991Z,5.30
2017-11-04T00:51:47.464Z,5.20
2017-11-04T00:54:13.912Z,5.20
2017-11-04T00:56:41.155Z,5.20
2017-11-04T00:59:07.595Z,5.20
2017-11-04T01:01:34.047Z,5.30
2017-11-04T01:04:01.267Z,5.30
2017-11-04T01:06:27.688Z,5.30
2017-11-04T01:08:54.170Z,5.40
2017-11-04T01:11:20.600Z,5.40
2017-11-04T01:13:47.093Z,5.30
2017-11-04T01:16:13.535Z,5.30
2017-11-04T01:18:39.988Z,5.30
2017-11-04T01:21:06.448Z,5.30
2017-11-04T01:23:33.067Z,5.20
2017-11-04T01:25:59.543Z,5.20
2017-11-04T01:28:26.004Z,5.10
2017-11-04T01:30:53.207Z,5.10
2017-11-04T01:33:19.653Z,5.10
2017-11-04T01:35:46.531Z,5.10
2017-11-04T01:38:13.839Z,5.00
2017-11-04T01:40:40.308Z,5.00
2017-11-04T01:43:06.818Z,5.00
2017-11-04T01:45:33.260Z,4.90
2017-11-04T01:47:59.721Z,5.00
2017-11-04T01:50:26.182Z,5.00
2017-11-04T01:52:52.686Z,5.00
2017-11-04T01:55:19.144Z,5.00
2017-11-04T01:57:45.598Z,4.90
2017-11-04T02:00:12.847Z,4.80
2017-11-04T02:02:39.307Z,4.70
2017-11-04T02:05:06.532Z,4.90
2017-11-04T02:07:33.041Z,4.90
2017-11-04T02:09:59.628Z,4.80
2017-11-04T02:12:26.090Z,4.80
2017-11-04T02:14:53.288Z,4.80
2017-11-04T02:17:19.750Z,4.70
2017-11-04T02:19:46.207Z,4.80
2017-11-04T02:22:12.683Z,4.70
2017-11-04T02:24:39.151Z,4.70
2017-11-04T02:27:05.602Z,4.70
2017-11-04T02:29:32.109Z,4.60
2017-11-04T02:31:58.547Z,4.70
2017-11-04T02:34:25.024Z,4.70
2017-11-04T02:36:51.560Z,4.70
2017-11-04T02:39:18.095Z,4.70
2017-11-04T02:41:44.544Z,4.60
2017-11-04T02:44:10.998Z,4.50
2017-11-04T02:46:37.477Z,4.60
2017-11-04T02:49:03.918Z,4.50
2017-11-04T02:51:30.463Z,4.40
2017-11-04T02:53:57.003Z,4.50
2017-11-04T02:56:23.446Z,4.60
2017-11-04T02:58:49.909Z,4.50
2017-11-04T03:01:16.376Z,4.50
2017-11-04T03:03:42.859Z,4.50
2017-11-04T03:06:09.464Z,4.50
2017-11-04T03:08:35.887Z,4.40
2017-11-04T03:11:02.355Z,4.20
2017-11-04T03:13:29.560Z,4.40
2017-11-04T03:15:55.995Z,4.40
2017-11-04T03:18:22.432Z,4.50
2017-11-04T03:20:48.852Z,4.50
2017-11-04T03:23:15.383Z,4.50
2017-11-04T03:25:41.838Z,4.50
2017-11-04T03:28:08.281Z,4.50
2017-11-04T03:30:34.729Z,4.40
2017-11-04T03:33:01.219Z,4.50
2017-11-04T03:35:28.400Z,4.60
2017-11-04T03:37:54.863Z,4.60
2017-11-04T03:40:21.513Z,4.50
2017-11-04T03:42:47.923Z,4.50
2017-11-04T03:45:14.371Z,4.40
2017-11-04T03:47:40.811Z,4.40
2017-11-04T03:50:07.438Z,4.30
2017-11-04T03:52:33.883Z,4.30
2017-11-04T03:55:00.329Z,4.30
2017-11-04T03:57:26.867Z,4.30
2017-11-04T03:59:53.314Z,4.40
2017-11-04T04:02:19.920Z,4.30
2017-11-04T04:04:47.132Z,4.40
2017-11-04T04:07:13.619Z,4.40
2017-11-04T04:09:40.899Z,4.40
2017-11-04T04:12:07.359Z,4.40
2017-11-04T04:14:33.796Z,4.50
2017-11-04T04:17:00.254Z,4.40
2017-11-04T04:19:26.737Z,4.40
2017-11-04T04:21:53.915Z,4.40
2017-11-04T04:24:20.421Z,4.30
2017-11-04T04:26:47.608Z,4.40
2017-11-04T04:29:14.023Z,4.40
2017-11-04T04:31:41.255Z,4.40
2017-11-04T04:34:07.697Z,4.40
2017-11-04T04:36:36.680Z,4.40
2017-11-04T04:39:03.120Z,4.40
2017-11-04T04:41:29.566Z,4.40
2017-11-04T04:43:56.086Z,4.40
2017-11-04T04:46:22.531Z,4.40
2017-11-04T04:48:49.012Z,4.50
2017-11-04T04:51:16.197Z,4.60
2017-11-04T04:53:42.620Z,4.60
2017-11-04T04:56:09.072Z,4.60
2017-11-04T04:58:35.579Z,4.60
2017-11-04T05:01:02.759Z,4.60
2017-11-04T05:03:29.207Z,4.60
2017-11-04T05:05:55.669Z,4.70
2017-11-04T05:08:22.120Z,4.70
2017-11-04T05:10:48.595Z,4.70
2017-11-04T05:13:15.772Z,4.70
2017-11-04T05:15:42.202Z,4.60
2017-11-04T05:18:08.647Z,4.70
2017-11-04T05:20:35.187Z,4.70
2017-11-04T05:23:01.640Z,4.70
2017-11-04T05:25:28.067Z,4.70
2017-11-04T05:27:54.535Z,4.90
2017-11-04T05:30:20.960Z,5.00
2017-11-04T05:32:47.468Z,5.20
2017-11-04T05:35:13.889Z,5.50
2017-11-04T05:37:41.055Z,5.70
2017-11-04T05:40:08.247Z,5.60
2017-11-04T05:42:35.221Z,5.60
2017-11-04T05:45:01.769Z,5.50
2017-11-04T05:47:28.263Z,5.30
2017-11-04T05:49:54.754Z,5.30
2017-11-04T05:52:21.400Z,5.20
2017-11-04T05:54:47.867Z,5.30
2017-11-04T05:57:14.434Z,5.40
2017-11-04T05:59:40.856Z,5.20
2017-11-04T06:02:07.431Z,5.40
2017-11-04T06:04:33.918Z,5.40
2017-11-04T06:07:01.217Z,5.50
2017-11-04T06:09:27.708Z,5.50
2017-11-04T06:11:54.911Z,5.60
2017-11-04T06:14:21.393Z,5.60
2017-11-04T06:16:47.855Z,5.50
2017-11-04T06:19:14.355Z,5.60
2017-11-04T06:21:40.867Z,5.60
2017-11-04T06:24:07.349Z,5.60
2017-11-04T06:26:33.793Z,5.60
2017-11-04T06:29:01.004Z,5.70
2017-11-04T06:31:27.493Z,5.70
2017-11-04T06:33:53.951Z,5.80
2017-11-04T06:36:21.123Z,5.90
2017-11-04T06:38:47.591Z,5.90
2017-11-04T06:41:14.059Z,6.00
2017-11-04T06:43:40.519Z,6.10
2017-11-04T06:46:07.922Z,6.10
2017-11-04T06:48:34.453Z,6.10
2017-11-04T06:51:01.027Z,6.30
2017-11-04T06:53:27.523Z,6.20
2017-11-04T06:55:53.984Z,6.20
2017-11-04T06:58:20.431Z,6.20
2017-11-04T07:00:46.879Z,6.30
2017-11-04T07:03:13.304Z,6.30
2017-11-04T07:05:39.842Z,6.30
2017-11-04T07:08:06.310Z,6.40
2017-11-04T07:10:32.755Z,6.40
2017-11-04T07:12:59.236Z,6.50
2017-11-04T07:15:25.688Z,6.60
2017-11-04T07:17:52.123Z,6.70
2017-11-04T07:20:18.619Z,6.50
2017-11-04T07:22:45.835Z,6.50
2017-11-04T07:25:12.308Z,6.50
2017-11-04T07:27:38.759Z,6.50
2017-11-04T07:30:06.019Z,6.70
2017-11-04T07:32:33.216Z,6.80
2017-11-04T07:34:59.695Z,6.80
2017-11-04T07:37:26.201Z,6.90
2017-11-04T07:39:52.688Z,6.90
2017-11-04T07:42:19.903Z,7.10
2017-11-04T07:44:46.326Z,7.10
2017-11-04T07:47:12.778Z,7.20
2017-11-04T07:49:39.424Z,7.20
2017-11-04T07:52:06.767Z,7.10
2017-11-04T07:54:33.261Z,7.20
2017-11-04T07:57:00.446Z,7.20
2017-11-04T07:59:26.935Z,7.20
2017-11-04T08:01:53.594Z,7.30
2017-11-04T08:04:20.863Z,7.50
2017-11-04T08:06:48.063Z,7.60
2017-11-04T08:09:14.640Z,7.60
2017-11-04T08:11:41.116Z,7.70
2017-11-04T08:14:07.588Z,7.80
2017-11-04T08:16:34.067Z,8.00
2017-11-04T08:19:00.507Z,8.00
2017-11-04T08:21:27.018Z,8.10
2017-11-04T08:23:53.488Z,8.20
2017-11-04T08:26:20.685Z,8.50
2017-11-04T08:28:47.155Z,8.50
2017-11-04T08:31:13.664Z,8.70
2017-11-04T08:33:40.156Z,8.90
2017-11-04T08:36:06.599Z,9.10
2017-11-04T08:38:33.085Z,9.20
2017-11-04T08:40:59.545Z,9.40
2017-11-04T08:43:25.968Z,9.50
2017-11-04T08:45:52.432Z,9.70
2017-11-04T08:48:18.899Z,9.80
2017-11-04T08:50:46.106Z,9.80
2017-11-04T08:53:12.528Z,9.70
2017-11-04T08:55:39.003Z,9.70
2017-11-04T08:58:05.591Z,9.90
2017-11-04T09:00:32.768Z,10.30
2017-11-04T09:02:59.368Z,10.20
2017-11-04T09:05:25.847Z,10.60
2017-11-04T09:07:52.328Z,10.80
2017-11-04T09:10:18.772Z,11.10
2017-11-04T09:12:45.243Z,11.10
2017-11-04T09:15:12.440Z,11.50
2017-11-04T09:17:38.892Z,11.50
2017-11-04T09:20:05.386Z,11.60
2017-11-04T09:22:31.839Z,11.80
2017-11-04T09:24:58.328Z,11.90
2017-11-04T09:27:24.793Z,12.10
2017-11-04T09:29:51.963Z,11.70
2017-11-04T09:32:18.443Z,11.70
2017-11-04T09:34:44.884Z,11.90
2017-11-04T09:37:11.552Z,12.40
2017-11-04T09:39:38.012Z,12.60
2017-11-04T09:42:05.308Z,13.10
2017-11-04T09:44:31.732Z,13.10
2017-11-04T09:46:58.164Z,13.40
2017-11-04T09:49:24.733Z,13.90
2017-11-04T09:51:52.145Z,14.50
2017-11-04T09:54:19.618Z,14.90
2017-11-04T09:56:46.916Z,14.60
2017-11-04T09:59:13.350Z,14.60
2017-11-04T10:01:39.866Z,14.10
2017-11-04T10:04:06.391Z,14.10
2017-11-04T10:06:34.028Z,14.40
2017-11-04T10:09:00.763Z,14.40
2017-11-04T10:11:27.232Z,15.00
2017-11-04T10:13:54.506Z,16.30
2017-11-04T10:16:21.783Z,16.70
2017-11-04T10:18:48.235Z,16.60
2017-11-04T10:21:14.660Z,17.00
2017-11-04T10:23:41.115Z,17.30
2017-11-04T10:26:07.615Z,17.50
2017-11-04T10:28:34.844Z,17.90
2017-11-04T10:31:01.302Z,17.80
2017-11-04T10:33:28.548Z,18.00
2017-11-04T10:35:54.981Z,18.00
2017-11-04T10:38:21.612Z,18.30
2017-11-04T10:40:48.131Z,18.20
2017-11-04T10:43:14.567Z,17.90
2017-11-04T10:45:41.020Z,17.90
2017-11-04T10:48:07.460Z,17.50
2017-11-04T10:50:33.927Z,17.70
2017-11-04T10:53:00.397Z,18.10
2017-11-04T10:55:26.840Z,18.00
2017-11-04T10:57:53.359Z,18.30
2017-11-04T11:00:20.546Z,18.70
2017-11-04T11:02:47.392Z,18.70
2017-11-04T11:05:14.044Z,19.00
2017-11-04T11:07:40.503Z,19.50
2017-11-04T11:10:07.206Z,19.70
2017-11-04T11:12:33.783Z,19.70
2017-11-04T11:15:00.372Z,20.50
2017-11-04T11:17:27.966Z,20.80
2017-11-04T11:20:01.604Z,20.70
2017-11-04T11:22:28.080Z,21.00
2017-11-04T11:24:55.243Z,19.80
2017-11-04T11:27:22.472Z,19.00
2017-11-04T11:29:50.442Z,18.50
2017-11-04T11:32:23.932Z,18.50
2017-11-04T11:34:50.376Z,18.70
2017-11-04T11:37:18.314Z,19.40
2017-11-04T11:39:44.847Z,19.30
2017-11-04T11:42:11.290Z,19.80
2017-11-04T11:44:37.780Z,20.30
2017-11-04T11:47:04.251Z,21.20
2017-11-04T11:49:30.736Z,21.90
2017-11-04T11:54:52.618Z,21.50
2017-11-04T11:57:19.912Z,20.40
2017-11-04T11:59:46.585Z,20.30
2017-11-04T12:02:13.072Z,19.90
2017-11-04T12:04:39.694Z,19.60
2017-11-04T12:07:06.255Z,19.70
2017-11-04T12:09:33.174Z,19.60
2017-11-04T12:11:59.863Z,20.20
2017-11-04T12:14:28.631Z,20.70
2017-11-04T12:16:55.198Z,21.30
2017-11-04T12:19:21.749Z,21.50
2017-11-04T12:21:48.926Z,21.90
2017-11-04T12:24:15.539Z,21.90
2017-11-04T12:26:41.969Z,22.30
2017-11-04T12:29:09.945Z,20.30
2017-11-04T12:31:36.402Z,20.30
2017-11-04T12:34:03.617Z,21.00
2017-11-04T12:36:30.116Z,20.90
2017-11-04T12:38:56.556Z,20.40
2017-11-04T12:41:23.052Z,19.70
2017-11-04T12:43:49.509Z,18.90
2017-11-04T12:46:16.693Z,18.10
2017-11-04T12:48:43.167Z,18.00
2017-11-04T12:51:09.608Z,17.90
2017-11-04T12:53:36.160Z,17.90
2017-11-04T12:56:02.604Z,17.90
2017-11-04T12:58:29.047Z,18.00
2017-11-04T13:00:55.585Z,18.40
2017-11-04T13:03:36.970Z,18.70
2017-11-04T13:06:03.735Z,18.80
2017-11-04T13:08:31.013Z,18.40
2017-11-04T13:10:57.550Z,18.40
2017-11-04T13:13:24.038Z,17.90
2017-11-04T13:15:50.501Z,17.90
2017-11-04T13:18:17.876Z,18.00
2017-11-04T13:20:45.070Z,18.50
2017-11-04T13:23:11.609Z,18.50
2017-11-04T13:25:38.138Z,19.40
2017-11-04T13:28:04.628Z,19.60
2017-11-04T13:30:31.196Z,19.40
2017-11-04T13:32:58.433Z,18.40
2017-11-04T13:35:24.970Z,18.40
2017-11-04T13:37:52.256Z,18.10
2017-11-04T13:40:19.206Z,18.00
2017-11-04T13:42:45.719Z,18.00
2017-11-04T13:45:12.284Z,18.10
2017-11-04T13:47:53.655Z,18.40
2017-11-04T13:50:20.914Z,19.30
2017-11-04T13:52:48.155Z,20.00
2017-11-04T13:55:15.380Z,21.70
2017-11-04T13:57:42.022Z,21.70
2017-11-04T14:00:08.490Z,23.10
2017-11-04T14:02:34.957Z,23.70
2017-11-04T14:05:01.460Z,24.70
2017-11-04T14:09:53.609Z,26.10
2017-11-04T14:12:20.209Z,26.50
2017-11-04T14:14:46.815Z,25.10
2017-11-04T14:17:16.871Z,24.40
2017-11-04T14:19:43.347Z,24.30
2017-11-04T14:22:09.843Z,24.60
2017-11-04T14:24:36.334Z,24.30
2017-11-04T14:27:02.935Z,23.80
2017-11-04T14:29:29.405Z,23.10
2017-11-04T14:31:56.042Z,22.50
2017-11-04T14:34:22.508Z,22.70
2017-11-04T14:36:48.960Z,23.20
2017-11-04T14:39:16.209Z,23.60
2017-11-04T14:41:42.673Z,23.60
2017-11-04T14:44:09.911Z,23.90
2017-11-04T14:46:37.972Z,24.70
2017-11-04T14:49:04.549Z,24.70
2017-11-04T14:51:31.756Z,24.10
2017-11-04T14:53:58.356Z,24.00
2017-11-04T14:56:25.008Z,24.00
2017-11-04T14:58:51.517Z,23.00
2017-11-04T15:01:18.031Z,21.80
2017-11-04T15:03:44.522Z,20.20
2017-11-04T15:06:11.111Z,19.40
2017-11-04T15:08:37.767Z,18.60
2017-11-04T15:11:04.202Z,18.00
2017-11-04T15:13:30.687Z,17.80
2017-11-04T15:15:57.233Z,17.50
2017-11-04T15:18:23.792Z,17.00
2017-11-04T15:20:50.245Z,16.70
2017-11-04T15:23:16.811Z,16.40
2017-11-04T15:25:44.745Z,15.80
2017-11-04T15:28:11.208Z,15.80
2017-11-04T15:30:37.780Z,15.60
2017-11-04T15:33:05.026Z,15.30
2017-11-04T15:35:31.525Z,15.20
2017-11-04T15:37:58.001Z,15.00
2017-11-04T15:40:25.949Z,14.80
2017-11-04T15:42:52.436Z,14.80
2017-11-04T15:45:19.611Z,14.70
2017-11-04T15:47:46.093Z,14.70
2017-11-04T15:50:12.537Z,14.60
2017-11-04T15:52:40.150Z,14.50
2017-11-04T15:55:06.674Z,14.50
2017-11-04T15:57:33.964Z,14.40
2017-11-04T16:00:00.453Z,14.40
2017-11-04T16:02:27.765Z,14.10
2017-11-04T16:04:54.280Z,14.10
2017-11-04T16:07:20.857Z,13.90
2017-11-04T16:09:47.424Z,13.60
2017-11-04T16:12:14.013Z,13.50
2017-11-04T16:14:40.483Z,13.40
2017-11-04T16:17:06.941Z,13.30
2017-11-04T16:19:33.915Z,13.20
2017-11-04T16:22:01.123Z,13.00
2017-11-04T16:24:27.700Z,12.90
2017-11-04T16:26:54.220Z,13.00
2017-11-04T16:29:20.709Z,12.90
2017-11-04T16:31:47.945Z,12.90
2017-11-04T16:34:16.301Z,12.80
2017-11-04T16:36:43.845Z,12.80
2017-11-04T16:39:12.213Z,12.60
2017-11-04T16:41:39.378Z,12.60
2017-11-04T16:44:06.779Z,12.60
2017-11-04T16:46:35.202Z,12.70
2017-11-04T16:49:01.981Z,12.60
2017-11-04T16:51:28.485Z,12.60
2017-11-04T16:53:54.956Z,12.60
2017-11-04T16:56:36.453Z,12.50
2017-11-04T16:59:02.968Z,12.50
2017-11-04T17:01:29.856Z,12.50
2017-11-04T17:03:57.120Z,12.40
2017-11-04T17:06:24.472Z,12.30
2017-11-04T17:08:50.974Z,12.30
2017-11-04T17:11:17.520Z,12.20
2017-11-04T17:13:44.246Z,12.20
2017-11-04T17:16:10.826Z,12.20
2017-11-04T17:18:37.514Z,12.20
2017-11-04T17:21:03.972Z,12.20
2017-11-04T17:23:30.509Z,12.20
2017-11-04T17:25:57.997Z,12.10
2017-11-04T17:28:24.593Z,12.10
2017-11-04T17:30:51.076Z,12.10
2017-11-04T17:33:17.586Z,12.10
2017-11-04T17:35:44.057Z,12.00
2017-11-04T17:38:10.689Z,11.90
2017-11-04T17:40:37.226Z,12.00
2017-11-04T17:43:03.692Z,12.00
2017-11-04T17:45:30.163Z,11.90
2017-11-04T17:47:57.397Z,12.10
2017-11-04T17:50:24.163Z,12.10
2017-11-04T17:52:50.683Z,12.20
2017-11-04T17:55:17.156Z,12.30
2017-11-04T17:57:45.327Z,12.30
2017-11-04T18:00:12.563Z,12.30
2017-11-04T18:02:39.327Z,12.30
2017-11-04T18:05:08.110Z,12.30
2017-11-04T18:07:34.599Z,12.20
2017-11-04T18:10:01.614Z,12.30
2017-11-04T18:12:28.869Z,12.30
2017-11-04T18:14:57.075Z,12.30
2017-11-04T18:17:24.857Z,12.20
2017-11-04T18:19:51.389Z,12.30
2017-11-04T18:22:19.168Z,12.20
2017-11-04T18:24:45.827Z,12.20
2017-11-04T18:27:13.741Z,12.20
2017-11-04T18:29:42.049Z,12.20
2017-11-04T18:32:09.532Z,12.20
2017-11-04T18:34:37.422Z,12.20
2017-11-04T18:37:04.129Z,12.20
2017-11-04T18:39:32.112Z,12.10
2017-11-04T18:41:58.687Z,12.10
2017-11-04T18:44:25.494Z,12.10
2017-11-04T18:46:53.270Z,12.00
2017-11-04T18:49:20.834Z,12.00
2017-11-04T18:51:48.318Z,11.90
2017-11-04T18:54:16.304Z,11.90
2017-11-04T18:56:44.736Z,11.90
2017-11-04T18:59:12.807Z,11.90
2017-11-04T19:01:40.479Z,11.70
2017-11-04T19:04:08.672Z,11.60
2017-11-04T19:06:35.626Z,11.50
2017-11-04T19:09:02.677Z,11.30
2017-11-04T19:11:31.696Z,11.30
2017-11-04T19:13:59.758Z,11.20
2017-11-04T19:16:26.668Z,11.20
2017-11-04T19:18:55.492Z,11.20
2017-11-04T19:21:22.273Z,11.10
2017-11-04T19:23:49.976Z,11.10
2017-11-04T19:26:17.370Z,11.10
2017-11-04T19:28:44.728Z,11.10
2017-11-04T19:31:12.095Z,11.10
2017-11-04T19:33:38.535Z,10.90
2017-11-04T19:36:05.166Z,10.80
2017-11-04T19:38:31.687Z,10.90
2017-11-04T19:40:58.890Z,10.80
2017-11-04T19:43:25.412Z,10.80
2017-11-04T19:45:52.019Z,10.90
2017-11-04T19:48:19.235Z,10.90
2017-11-04T19:50:45.906Z,10.90
2017-11-04T19:53:12.378Z,10.80
2017-11-04T19:55:39.159Z,10.80
2017-11-04T19:58:06.465Z,10.60
2017-11-04T20:00:33.694Z,10.60
2017-11-04T20:03:00.209Z,10.60
2017-11-04T20:05:26.745Z,10.50
2017-11-04T20:07:53.190Z,10.40
2017-11-04T20:10:19.783Z,10.30
2017-11-04T20:12:46.979Z,10.20
2017-11-04T20:15:13.464Z,10.20
2017-11-04T20:17:40.715Z,10.20
2017-11-04T20:20:07.218Z,10.20
2017-11-04T20:22:33.736Z,10.20
2017-11-04T20:25:00.291Z,10.10
2017-11-04T20:27:27.154Z,10.00
2017-11-04T20:29:53.797Z,10.00
2017-11-04T20:32:20.378Z,9.90
2017-11-04T20:34:46.901Z,9.80
2017-11-04T20:37:13.477Z,9.80
2017-11-04T20:39:40.677Z,9.60
2017-11-04T20:42:07.149Z,9.50
2017-11-04T20:44:33.815Z,9.60
2017-11-04T20:47:01.040Z,9.40
2017-11-04T20:49:27.703Z,9.40
2017-11-04T20:51:55.599Z,9.30
2017-11-04T20:54:22.096Z,9.30
2017-11-04T20:56:48.882Z,9.20
2017-11-04T20:59:15.889Z,9.20
2017-11-04T21:01:42.765Z,9.20
2017-11-04T21:04:10.147Z,9.20
2017-11-04T21:06:36.934Z,9.20
2017-11-04T21:09:04.597Z,9.10
2017-11-04T21:11:32.556Z,9.10
2017-11-04T21:13:59.054Z,9.10
2017-11-04T21:16:26.349Z,8.90
2017-11-04T21:18:53.099Z,8.90
2017-11-04T21:21:19.834Z,8.80
2017-11-04T21:23:47.395Z,8.70
2017-11-04T21:26:14.669Z,8.70
2017-11-04T21:28:41.911Z,8.70
2017-11-04T21:31:23.285Z,8.70
2017-11-04T21:33:49.767Z,8.70
2017-11-04T21:36:16.362Z,8.80
2017-11-04T21:38:42.824Z,8.80
2017-11-04T21:41:09.350Z,8.70
2017-11-04T21:43:35.960Z,8.50
2017-11-04T21:46:03.215Z,8.30
2017-11-04T21:48:30.468Z,8.30
2017-11-04T21:50:56.936Z,8.30
2017-11-04T21:53:23.577Z,8.40
2017-11-04T21:55:50.030Z,8.40
2017-11-04T21:58:16.512Z,8.40
2017-11-04T22:00:43.031Z,8.40
2017-11-04T22:03:09.542Z,8.40
2017-11-04T22:05:36.093Z,8.40
2017-11-04T22:08:02.541Z,8.40
2017-11-04T22:10:29.036Z,8.40
2017-11-04T22:12:56.253Z,8.30
2017-11-04T22:15:22.767Z,8.30
2017-11-04T22:17:49.283Z,8.30
2017-11-04T22:20:16.505Z,8.40
2017-11-04T22:22:43.813Z,8.40
2017-11-04T22:25:10.261Z,8.40
2017-11-04T22:27:36.817Z,8.50
2017-11-04T22:30:03.443Z,8.50
2017-11-04T22:32:29.905Z,8.30
2017-11-04T22:34:56.364Z,8.20
2017-11-04T22:37:22.851Z,8.10
2017-11-04T22:39:49.356Z,8.10
2017-11-04T22:42:15.792Z,8.30
2017-11-04T22:44:42.278Z,8.30
2017-11-04T22:47:08.770Z,8.10
2017-11-04T22:49:35.278Z,8.00
2017-11-04T22:52:01.805Z,8.10
2017-11-04T22:54:28.355Z,8.20
2017-11-04T22:56:54.881Z,8.20
2017-11-04T22:59:21.332Z,8.00
2017-11-04T23:01:48.022Z,8.00
2017-11-04T23:04:15.279Z,8.00
2017-11-04T23:06:42.472Z,7.90
2017-11-04T23:09:09.027Z,7.90
2017-11-04T23:11:35.808Z,7.80
2017-11-04T23:14:03.048Z,7.90
2017-11-04T23:16:29.578Z,7.90
2017-11-04T23:18:56.225Z,8.00
2017-11-04T23:21:22.663Z,8.30
2017-11-04T23:23:49.108Z,8.40
2017-11-04T23:26:15.632Z,8.30
2017-11-04T23:28:42.314Z,8.30
2017-11-04T23:31:08.800Z,8.40
2017-11-04T23:33:35.251Z,8.40
2017-11-04T23:36:01.709Z,8.50
2017-11-04T23:38:28.335Z,8.50
2017-11-04T23:40:54.817Z,8.50
2017-11-04T23:43:21.451Z,8.30
2017-11-04T23:45:48.062Z,8.30
2017-11-04T23:48:14.542Z,8.30
2017-11-04T23:50:41.036Z,8.20
2017-11-04T23:53:07.548Z,8.10
2017-11-04T23:55:34.753Z,8.10
2017-11-04T23:58:01.273Z,8.10
